SPTN/TCQ METAR and TAF weather

Enter ICAO airport designator
Station Type Date Time Source
SPTN METAR 2020/01/26 01:00 UTC NOAA

SPTN 260100Z 22007KT 8000 SCT008 OVC016 22/21 Q1019 RMK PP000


Station Type Date Time Source
SPTN Decoded METAR 2020/01/26 01:00 UTC NOAA

Tacna, Peru (SPTN) 18-04S 070-18W 469M
Jan 25, 2020 - 08:00 PM EST / 2020.01.26 0100 UTC
Wind: from the SW (220 degrees) at 8 MPH (7 KT):0
Visibility: 4 mile(s):0
Sky conditions: overcast
Temperature: 71 F (22 C)
Dew Point: 69 F (21 C)
Relative Humidity: 94%
Pressure (altimeter): 30.09 in. Hg (1019 hPa)
ob: SPTN 260100Z 22007KT 8000 SCT008 OVC016 22/21 Q1019 RMK PP000
cycle: 1

Station Type Date Time Source
SPTN TAF 2020/01/25 18:33 UTC NOAA

TAF SPTN 251700Z 2518/2618 24010KT 9999 SCT050 TX26/2519Z TN20/2610Z
FM260000 06005KT 6000 BKN018
FM260800 VRB05KT 9999 BKN060

Example: see airport list